Time;durP1;ratioP1;P1;durP2;ratioP2;P2;SDS_P1;SDS_P2;PMS_P1;PMS_P2;Temp;Humidity;BMP_temperature;BMP_pressure;BME280_temperature;BME280_humidity;BME280_pressure;Samples;Min_cycle;Max_cycle;Signal;HPM_P1;HPM_P2
2022/12/09 00:01:12;;;;;;;4.40;3.25;;;18.90;96.00;;;;;;4160669;28;20277;-74
2022/12/09 00:03:15;;;;;;;5.10;3.80;;;18.90;96.00;;;;;;4159561;28;20386;-74
2022/12/09 00:05:17;;;;;;;4.28;3.70;;;18.90;96.30;;;;;;4162518;28;20224;-74
2022/12/09 00:07:20;;;;;;;5.95;4.03;;;18.90;95.80;;;;;;4162345;28;20266;-75
2022/12/09 00:09:23;;;;;;;6.30;3.95;;;18.90;96.00;;;;;;4162535;28;20200;-74
2022/12/09 00:11:26;;;;;;;5.28;3.78;;;18.90;96.30;;;;;;4162634;28;20216;-74
2022/12/09 00:13:28;;;;;;;5.32;4.10;;;18.90;95.80;;;;;;4160014;28;20631;-74
2022/12/09 00:15:31;;;;;;;4.20;3.40;;;18.90;95.80;;;;;;4162667;28;20709;-74
2022/12/09 00:17:33;;;;;;;5.40;3.88;;;18.80;95.90;;;;;;4161019;28;20208;-74
2022/12/09 00:19:35;;;;;;;5.60;3.80;;;18.80;95.60;;;;;;4162289;28;20233;-74
2022/12/09 00:21:38;;;;;;;5.88;3.92;;;18.80;95.90;;;;;;4162112;28;20274;-75
2022/12/09 00:23:40;;;;;;;6.75;4.05;;;18.80;95.90;;;;;;4158315;28;20243;-74
2022/12/09 00:25:44;;;;;;;5.43;4.07;;;18.80;95.70;;;;;;4162358;28;20275;-74
2022/12/09 00:27:46;;;;;;;5.43;4.05;;;18.80;95.80;;;;;;4162685;28;20266;-75
2022/12/09 00:29:48;;;;;;;5.30;4.18;;;18.80;95.70;;;;;;4158310;28;20614;-74
2022/12/09 00:31:51;;;;;;;5.20;3.88;;;18.80;95.70;;;;;;4162273;28;20287;-74
2022/12/09 00:33:56;;;;;;;5.53;3.70;;;18.80;96.10;;;;;;4159670;28;20224;-74
2022/12/09 00:36:04;;;;;;;5.35;4.07;;;18.80;95.70;;;;;;4161677;28;20270;-74
2022/12/09 00:38:07;;;;;;;5.43;4.18;;;18.80;95.70;;;;;;4162586;28;20318;-74
2022/12/09 00:40:10;;;;;;;6.80;3.90;;;18.80;95.60;;;;;;4162149;28;20236;-74
2022/12/09 00:42:13;;;;;;;4.55;3.40;;;18.70;95.70;;;;;;4162426;28;20216;-74
2022/12/09 00:44:16;;;;;;;4.78;3.97;;;18.70;95.70;;;;;;4162420;28;20220;-74
2022/12/09 00:46:18;;;;;;;6.68;4.22;;;18.70;95.80;;;;;;4158917;28;20625;-74
2022/12/09 00:48:20;;;;;;;5.88;3.88;;;18.70;95.70;;;;;;4161782;28;20270;-74
2022/12/09 00:50:23;;;;;;;4.80;3.92;;;18.70;95.60;;;;;;4162044;28;20213;-74
2022/12/09 00:52:25;;;;;;;5.13;4.20;;;18.70;95.90;;;;;;4163989;28;20264;-74
2022/12/09 00:54:27;;;;;;;5.72;4.03;;;18.70;95.70;;;;;;4163612;28;20216;-74
2022/12/09 00:56:30;;;;;;;5.85;4.10;;;18.70;95.40;;;;;;4163259;28;20216;-74
2022/12/09 00:58:34;;;;;;;4.85;3.88;;;18.70;95.70;;;;;;4163408;28;20208;-74
2022/12/09 01:00:37;;;;;;;5.03;3.97;;;18.70;95.60;;;;;;4163818;28;20236;-74
2022/12/09 01:02:39;;;;;;;4.88;3.85;;;18.70;95.80;;;;;;4163268;28;20672;-74
2022/12/09 01:04:41;;;;;;;4.57;3.55;;;18.60;95.40;;;;;;4163862;28;20657;-74
2022/12/09 01:06:44;;;;;;;4.18;3.78;;;18.60;95.70;;;;;;4161444;28;20220;-74
2022/12/09 01:08:47;;;;;;;6.18;4.45;;;18.60;95.60;;;;;;4163149;28;20738;-74
2022/12/09 01:10:49;;;;;;;5.20;4.10;;;18.60;95.60;;;;;;4161052;28;20220;-74
2022/12/09 01:12:51;;;;;;;5.43;4.10;;;18.60;95.40;;;;;;4163485;28;20310;-74
2022/12/09 01:14:55;;;;;;;4.63;3.70;;;18.60;95.50;;;;;;4163304;28;20734;-74
2022/12/09 01:16:58;;;;;;;5.25;3.72;;;18.60;95.40;;;;;;4163183;28;20216;-74
2022/12/09 01:19:02;;;;;;;5.18;3.90;;;18.60;95.50;;;;;;4162666;28;20238;-74
2022/12/09 01:21:04;;;;;;;6.22;3.92;;;18.60;95.50;;;;;;4163285;28;20228;-74
2022/12/09 01:23:07;;;;;;;4.95;3.67;;;18.60;95.50;;;;;;4161802;28;20216;-74
2022/12/09 01:25:09;;;;;;;5.03;4.10;;;18.60;95.40;;;;;;4163018;28;21116;-74
2022/12/09 01:27:12;;;;;;;5.32;3.72;;;18.50;95.50;;;;;;4160708;28;20217;-74
2022/12/09 01:29:14;;;;;;;4.85;4.35;;;18.50;95.50;;;;;;4163213;28;20220;-74
2022/12/09 01:31:19;;;;;;;6.90;4.28;;;18.50;95.50;;;;;;4162900;28;20224;-74
2022/12/09 01:33:22;;;;;;;5.82;3.97;;;18.50;95.20;;;;;;4162052;28;20217;-74
2022/12/09 01:35:24;;;;;;;6.00;4.55;;;18.50;95.40;;;;;;4162432;28;20224;-74
2022/12/09 01:37:26;;;;;;;4.35;3.90;;;18.50;95.40;;;;;;4163107;28;20661;-74
2022/12/09 01:39:29;;;;;;;5.00;3.92;;;18.50;95.40;;;;;;4162052;28;20225;-74
2022/12/09 01:41:31;;;;;;;7.15;4.13;;;18.50;95.30;;;;;;4161488;28;20251;-74
2022/12/09 01:43:34;;;;;;;7.32;4.28;;;18.40;95.30;;;;;;4161696;28;20217;-74
2022/12/09 01:45:43;;;;;;;5.90;4.22;;;18.50;95.40;;;;;;4160801;28;20652;-74
2022/12/09 01:47:47;;;;;;;5.43;4.32;;;18.50;95.50;;;;;;4162973;28;20246;-74
2022/12/09 01:49:49;;;;;;;5.53;4.07;;;18.50;95.40;;;;;;4162968;28;20216;-74
2022/12/09 01:52:03;;;;;;;5.13;3.85;;;18.40;95.20;;;;;;4161995;28;20212;-74
2022/12/09 01:54:06;;;;;;;6.57;4.63;;;18.40;95.40;;;;;;4163005;28;20702;-74
2022/12/09 01:56:13;;;;;;;6.15;4.20;;;18.40;95.20;;;;;;4161039;28;21490;-74
2022/12/09 01:58:16;;;;;;;5.20;4.28;;;18.40;95.40;;;;;;4162307;28;20220;-74
2022/12/09 02:00:20;;;;;;;5.75;4.30;;;18.40;95.20;;;;;;4162482;28;20250;-74
2022/12/09 02:02:24;;;;;;;7.38;4.50;;;18.40;95.10;;;;;;4161441;28;20263;-74
2022/12/09 02:04:31;;;;;;;5.75;4.43;;;18.40;95.20;;;;;;4162299;28;20228;-74
2022/12/09 02:06:36;;;;;;;6.30;4.88;;;18.30;95.20;;;;;;4162505;28;20216;-74
2022/12/09 02:08:38;;;;;;;7.95;4.65;;;18.40;95.10;;;;;;4162558;28;20220;-74
2022/12/09 02:10:49;;;;;;;5.25;4.13;;;18.30;95.10;;;;;;4159178;28;20610;-74
2022/12/09 02:13:04;;;;;;;6.57;4.47;;;18.30;95.10;;;;;;4160664;28;20216;-74
2022/12/09 02:15:12;;;;;;;6.82;4.63;;;18.30;95.20;;;;;;4159289;28;20220;-74
2022/12/09 02:17:25;;;;;;;6.70;4.63;;;18.40;95.10;;;;;;4162604;28;20227;-74
2022/12/09 02:19:51;;;;;;;5.22;4.15;;;18.30;95.00;;;;;;4161320;28;20216;-74
2022/12/09 02:21:58;;;;;;;6.03;4.28;;;18.30;94.90;;;;;;4161798;28;20294;-74
2022/12/09 02:24:07;;;;;;;6.82;4.57;;;18.30;95.00;;;;;;4162359;28;20275;-74
2022/12/09 02:26:17;;;;;;;4.93;4.18;;;18.30;95.00;;;;;;4160924;28;20746;-74
2022/12/09 02:28:54;;;;;;;6.30;4.65;;;18.20;94.90;;;;;;4158398;28;20573;-74
2022/12/09 02:31:08;;;;;;;5.88;4.18;;;18.30;95.10;;;;;;4161165;28;20236;-74
2022/12/09 02:33:24;;;;;;;6.80;4.43;;;18.30;94.90;;;;;;4161451;28;20216;-75
2022/12/09 02:35:35;;;;;;;8.05;4.82;;;18.20;94.80;;;;;;4161488;28;20232;-74
2022/12/09 02:37:44;;;;;;;7.57;4.72;;;18.30;95.00;;;;;;4162050;28;20220;-74
2022/12/09 02:39:52;;;;;;;6.85;4.93;;;18.20;95.00;;;;;;4159394;28;20289;-75
2022/12/09 02:41:58;;;;;;;5.32;4.60;;;18.20;95.10;;;;;;4160697;28;20240;-74
2022/12/09 02:44:07;;;;;;;6.13;4.20;;;18.20;94.90;;;;;;4160478;28;20576;-74
2022/12/09 02:46:12;;;;;;;5.47;4.40;;;18.20;95.30;;;;;;4160154;28;20228;-74
2022/12/09 02:48:18;;;;;;;6.88;5.25;;;18.20;95.20;;;;;;4161034;28;20236;-74
2022/12/09 02:50:25;;;;;;;6.43;4.88;;;18.20;94.80;;;;;;4161931;28;20220;-74
2022/12/09 02:52:30;;;;;;;7.20;4.95;;;18.20;95.00;;;;;;4161832;28;20273;-75
2022/12/09 02:54:34;;;;;;;5.97;4.53;;;18.20;94.90;;;;;;4160562;28;20623;-74
2022/12/09 02:56:37;;;;;;;6.45;5.07;;;18.20;94.80;;;;;;4160408;28;20224;-74
2022/12/09 02:58:39;;;;;;;6.93;4.93;;;18.20;94.90;;;;;;4159327;28;20315;-74
2022/12/09 03:00:42;;;;;;;6.82;4.97;;;18.10;94.70;;;;;;4162043;28;20220;-74
2022/12/09 03:02:49;;;;;;;6.72;4.82;;;18.10;94.80;;;;;;4158437;28;20576;-74
2022/12/09 03:05:01;;;;;;;6.53;5.25;;;18.10;94.80;;;;;;4157476;28;20260;-74
2022/12/09 03:07:12;;;;;;;6.28;4.78;;;18.20;94.80;;;;;;4161649;28;20216;-74
2022/12/09 03:09:20;;;;;;;7.18;5.05;;;18.10;94.70;;;;;;4161181;28;20270;-74
2022/12/09 03:11:24;;;;;;;6.40;4.60;;;18.10;94.70;;;;;;4156883;28;20209;-74
2022/12/09 03:13:38;;;;;;;6.22;4.80;;;18.10;94.80;;;;;;4161298;28;20217;-74
2022/12/09 03:15:45;;;;;;;7.43;5.13;;;18.10;94.70;;;;;;4161597;28;20220;-74
2022/12/09 03:17:48;;;;;;;7.72;5.45;;;18.10;94.70;;;;;;4159887;28;20270;-74
2022/12/09 03:19:54;;;;;;;6.32;4.97;;;18.00;94.50;;;;;;4161255;28;20327;-74
2022/12/09 03:22:00;;;;;;;6.55;4.93;;;18.10;94.70;;;;;;4161619;28;20286;-74
2022/12/09 03:24:04;;;;;;;7.45;4.80;;;18.00;94.50;;;;;;4159548;28;20221;-75
2022/12/09 03:26:08;;;;;;;6.53;4.75;;;18.00;94.50;;;;;;4161347;28;20632;-74
2022/12/09 03:28:15;;;;;;;6.57;4.93;;;18.00;94.50;;;;;;4161165;28;20262;-75
2022/12/09 03:30:19;;;;;;;6.63;4.95;;;18.00;94.50;;;;;;4160907;28;20601;-75
2022/12/09 03:32:26;;;;;;;8.90;5.60;;;18.00;94.40;;;;;;4161141;28;20611;-74
2022/12/09 03:34:32;;;;;;;7.43;5.53;;;18.00;94.50;;;;;;4161333;28;20267;-74
2022/12/09 03:36:38;;;;;;;6.97;5.38;;;18.00;94.50;;;;;;4158460;28;20290;-74
2022/12/09 03:38:44;;;;;;;7.25;5.07;;;18.00;94.40;;;;;;4162857;28;20270;-74
2022/12/09 03:40:58;;;;;;;8.43;5.25;;;18.00;94.60;;;;;;4159386;28;20224;-74
2022/12/09 03:43:07;;;;;;;7.00;5.40;;;18.00;94.50;;;;;;4159731;28;20274;-74
2022/12/09 03:45:11;;;;;;;7.22;5.88;;;18.00;94.40;;;;;;4154033;28;20274;-74
2022/12/09 03:47:13;;;;;;;7.38;5.72;;;18.00;94.40;;;;;;4163170;28;20278;-74
2022/12/09 03:49:16;;;;;;;7.07;5.22;;;17.90;94.30;;;;;;4162630;28;20224;-74
2022/12/09 03:51:24;;;;;;;7.28;5.53;;;17.90;94.30;;;;;;4162617;28;20266;-74
2022/12/09 03:53:33;;;;;;;8.82;6.25;;;18.00;94.30;;;;;;4154707;28;20220;-74
2022/12/09 03:55:42;;;;;;;6.22;5.05;;;18.00;94.40;;;;;;4159694;28;20247;-74
2022/12/09 03:57:47;;;;;;;6.93;5.68;;;17.90;94.40;;;;;;4161537;28;20269;-74
2022/12/09 03:59:55;;;;;;;6.50;5.80;;;17.90;94.30;;;;;;4159130;28;20220;-74
2022/12/09 04:01:58;;;;;;;8.85;5.82;;;17.90;94.30;;;;;;4160626;28;20236;-74
2022/12/09 04:04:00;;;;;;;8.60;5.75;;;17.90;94.50;;;;;;4162578;28;20220;-74
2022/12/09 04:06:02;;;;;;;7.78;5.75;;;17.90;94.30;;;;;;4162739;28;20220;-74
2022/12/09 04:08:05;;;;;;;6.90;5.72;;;17.90;94.20;;;;;;4161626;28;20664;-74
2022/12/09 04:10:08;;;;;;;8.13;5.43;;;17.90;94.10;;;;;;4155855;28;20220;-74
2022/12/09 04:12:11;;;;;;;8.23;6.30;;;17.90;94.40;;;;;;4157085;28;20208;-74
2022/12/09 04:14:13;;;;;;;8.25;6.15;;;17.90;94.30;;;;;;4162556;28;20761;-74
2022/12/09 04:16:17;;;;;;;7.03;5.95;;;17.90;94.50;;;;;;4162636;28;20221;-74
2022/12/09 04:18:19;;;;;;;9.27;6.18;;;17.90;94.30;;;;;;4166713;28;20267;-74
2022/12/09 04:20:21;;;;;;;7.72;6.18;;;17.90;94.20;;;;;;4162185;28;20262;-74
2022/12/09 04:22:24;;;;;;;6.90;5.82;;;17.90;94.20;;;;;;4164360;28;20244;-74
2022/12/09 04:24:26;;;;;;;6.80;5.57;;;17.90;94.20;;;;;;4163814;28;20265;-75
2022/12/09 04:26:29;;;;;;;7.47;5.93;;;17.80;94.10;;;;;;4161987;28;20278;-74
2022/12/09 04:28:31;;;;;;;8.48;6.05;;;17.80;94.30;;;;;;4165831;28;20216;-74
2022/12/09 04:30:33;;;;;;;7.30;5.95;;;17.80;94.00;;;;;;4161472;28;20270;-74
2022/12/09 04:32:37;;;;;;;7.32;5.80;;;17.90;94.10;;;;;;4130713;28;20241;-75
2022/12/09 04:34:40;;;;;;;7.68;6.10;;;17.90;94.10;;;;;;4131614;28;20342;-74
2022/12/09 04:36:42;;;;;;;9.05;5.97;;;17.80;94.20;;;;;;4129277;28;20269;-75
2022/12/09 04:38:45;;;;;;;6.90;5.90;;;17.80;94.10;;;;;;4130643;28;20553;-74
2022/12/09 04:40:48;;;;;;;7.95;5.88;;;17.80;94.10;;;;;;4129898;28;20218;-74
2022/12/09 04:42:50;;;;;;;8.73;6.63;;;17.80;94.10;;;;;;4128644;28;20233;-74
2022/12/09 04:44:52;;;;;;;7.50;6.05;;;17.80;94.10;;;;;;4130722;28;20296;-74
2022/12/09 04:46:55;;;;;;;8.38;6.40;;;17.80;94.10;;;;;;4131159;28;20230;-75
2022/12/09 04:48:58;;;;;;;8.15;6.22;;;17.80;94.00;;;;;;4126599;28;20222;-74
2022/12/09 04:51:01;;;;;;;8.25;6.30;;;17.80;94.00;;;;;;4130958;28;20279;-75
2022/12/09 04:53:03;;;;;;;9.43;6.85;;;17.80;94.20;;;;;;4130357;28;20218;-74
2022/12/09 04:55:06;;;;;;;8.45;6.28;;;17.80;94.10;;;;;;4129050;28;20736;-74
2022/12/09 04:57:10;;;;;;;8.85;6.35;;;17.80;94.10;;;;;;4128517;28;20218;-74
2022/12/09 04:59:13;;;;;;;8.30;6.43;;;17.80;94.00;;;;;;4130131;28;20222;-74
2022/12/09 05:01:17;;;;;;;8.07;5.88;;;17.80;94.10;;;;;;4130892;28;20625;-74
2022/12/09 05:03:20;;;;;;;7.25;5.90;;;17.70;94.00;;;;;;4127111;28;20280;-74
2022/12/09 05:05:23;;;;;;;10.63;6.35;;;17.80;94.00;;;;;;4131290;28;20221;-75
2022/12/09 05:07:26;;;;;;;8.25;6.32;;;17.70;93.80;;;;;;4129897;28;20221;-74
2022/12/09 05:09:28;;;;;;;6.97;6.15;;;17.70;93.80;;;;;;4129428;28;20217;-74
2022/12/09 05:11:30;;;;;;;8.52;6.47;;;17.70;93.90;;;;;;4130061;28;20219;-74
2022/12/09 05:13:33;;;;;;;8.05;6.75;;;17.70;93.90;;;;;;4130086;28;20280;-74
2022/12/09 05:15:37;;;;;;;7.97;6.10;;;17.70;93.80;;;;;;4128460;28;20268;-74
2022/12/09 05:17:40;;;;;;;7.10;5.93;;;17.70;93.90;;;;;;4129612;28;20221;-74
2022/12/09 05:19:42;;;;;;;7.43;6.13;;;17.70;93.90;;;;;;4129617;28;20226;-74
2022/12/09 05:21:46;;;;;;;6.40;5.57;;;17.70;93.80;;;;;;4131024;28;20218;-74
2022/12/09 05:23:48;;;;;;;7.57;5.90;;;17.70;93.80;;;;;;4129602;28;20214;-74
2022/12/09 05:25:52;;;;;;;6.70;5.90;;;17.70;93.80;;;;;;4128103;28;20628;-74
2022/12/09 05:27:54;;;;;;;8.27;6.15;;;17.70;93.90;;;;;;4130824;28;20587;-74
2022/12/09 05:29:57;;;;;;;9.43;6.32;;;17.70;93.80;;;;;;4127448;28;20230;-74
2022/12/09 05:31:59;;;;;;;9.38;6.40;;;17.70;93.80;;;;;;4151116;28;20634;-74
2022/12/09 05:34:02;;;;;;;8.63;6.38;;;17.70;93.80;;;;;;4162369;28;20266;-74
2022/12/09 05:36:05;;;;;;;8.23;6.80;;;17.70;93.90;;;;;;4160558;28;20221;-74
2022/12/09 05:38:08;;;;;;;7.80;6.05;;;17.70;93.70;;;;;;4163245;28;20845;-74
2022/12/09 05:40:11;;;;;;;7.78;5.93;;;17.70;93.80;;;;;;4161727;28;20213;-74
2022/12/09 05:42:13;;;;;;;7.00;6.28;;;17.70;93.80;;;;;;4159506;28;20240;-74
2022/12/09 05:44:16;;;;;;;8.82;6.75;;;17.70;93.90;;;;;;4163128;28;20224;-74
2022/12/09 05:46:18;;;;;;;8.10;6.07;;;17.70;93.70;;;;;;4158542;28;20274;-74
2022/12/09 05:48:21;;;;;;;8.32;6.25;;;17.70;93.70;;;;;;4159269;28;20221;-74
2022/12/09 05:50:23;;;;;;;7.63;5.93;;;17.70;93.60;;;;;;4163086;28;20212;-74
2022/12/09 05:52:25;;;;;;;9.23;6.70;;;17.70;93.80;;;;;;4161622;28;20235;-74
2022/12/09 05:54:29;;;;;;;7.88;6.40;;;17.80;92.80;;;;;;4163113;28;20268;-74
2022/12/09 05:56:32;;;;;;;7.22;6.30;;;17.80;92.70;;;;;;4162538;28;20565;-74
2022/12/09 05:58:34;;;;;;;8.20;6.40;;;17.70;92.40;;;;;;4162852;28;20224;-74
2022/12/09 06:00:37;;;;;;;7.03;5.90;;;17.70;92.50;;;;;;4163148;28;20262;-74
2022/12/09 06:02:39;;;;;;;7.85;6.55;;;17.70;92.80;;;;;;4161039;28;20281;-74
2022/12/09 06:04:42;;;;;;;8.45;6.53;;;17.80;92.80;;;;;;4161723;28;20270;-74
2022/12/09 06:06:44;;;;;;;7.05;5.80;;;17.80;93.00;;;;;;4162949;28;20208;-74
2022/12/09 06:08:47;;;;;;;7.82;6.25;;;17.80;92.90;;;;;;4162663;28;20282;-74
2022/12/09 06:10:50;;;;;;;8.00;6.38;;;17.80;93.00;;;;;;4161826;28;20216;-74
2022/12/09 06:12:54;;;;;;;6.88;6.18;;;17.90;93.20;;;;;;4162168;28;20220;-74
2022/12/09 06:14:57;;;;;;;7.57;6.35;;;17.90;93.10;;;;;;4162986;28;20282;-74
2022/12/09 06:16:59;;;;;;;8.38;6.60;;;17.90;93.30;;;;;;4162722;28;20255;-74
2022/12/09 06:19:01;;;;;;;8.20;6.30;;;17.90;93.50;;;;;;4160439;28;20217;-74
2022/12/09 06:21:05;;;;;;;7.00;5.97;;;17.90;93.60;;;;;;4158661;28;20217;-74
2022/12/09 06:23:08;;;;;;;7.65;5.82;;;17.90;93.50;;;;;;4161940;28;20240;-74
2022/12/09 06:25:10;;;;;;;6.80;5.93;;;17.90;93.70;;;;;;4161374;28;20216;-74
2022/12/09 06:27:14;;;;;;;7.68;6.32;;;18.00;93.70;;;;;;4158819;28;20220;-74
2022/12/09 06:29:16;;;;;;;6.68;5.95;;;18.00;93.70;;;;;;4162005;28;20611;-74
2022/12/09 06:31:19;;;;;;;6.32;5.68;;;18.00;93.70;;;;;;4160862;28;20260;-74
2022/12/09 06:33:21;;;;;;;7.43;6.15;;;18.00;93.90;;;;;;4160158;28;20209;-74
2022/12/09 06:35:23;;;;;;;8.55;6.72;;;18.10;94.00;;;;;;4161394;28;20217;-75
2022/12/09 06:37:26;;;;;;;5.90;5.40;;;18.10;94.20;;;;;;4159769;28;20263;-74
2022/12/09 06:39:28;;;;;;;7.72;5.60;;;18.10;94.20;;;;;;4162259;28;20680;-74
2022/12/09 06:41:31;;;;;;;6.65;5.78;;;18.10;94.20;;;;;;4160437;28;20266;-74
2022/12/09 06:43:35;;;;;;;6.50;5.78;;;18.20;94.20;;;;;;4161987;28;20591;-74
2022/12/09 06:45:38;;;;;;;7.88;6.55;;;18.20;94.10;;;;;;4161938;28;20290;-74
2022/12/09 06:47:40;;;;;;;6.60;5.80;;;18.20;94.20;;;;;;4162023;28;20220;-74
2022/12/09 06:49:42;;;;;;;7.70;5.72;;;18.20;94.30;;;;;;4159848;28;20614;-74
2022/12/09 06:51:45;;;;;;;7.90;6.10;;;18.30;94.40;;;;;;4162003;28;20224;-75
2022/12/09 06:53:47;;;;;;;6.35;5.72;;;18.30;94.50;;;;;;4160259;28;20318;-74
2022/12/09 06:55:50;;;;;;;6.78;5.75;;;18.30;94.60;;;;;;4161073;28;20224;-74
2022/12/09 06:57:52;;;;;;;7.07;5.93;;;18.30;94.40;;;;;;4160589;28;20805;-74
2022/12/09 06:59:56;;;;;;;8.15;6.18;;;18.30;94.50;;;;;;4158878;28;20220;-74
2022/12/09 07:01:58;;;;;;;7.22;5.95;;;18.30;94.50;;;;;;4160758;28;20220;-74
2022/12/09 07:04:00;;;;;;;8.32;6.05;;;18.40;94.50;;;;;;4158116;28;20241;-74
2022/12/09 07:06:03;;;;;;;8.68;6.43;;;18.40;94.40;;;;;;4160046;28;20306;-75
2022/12/09 07:08:05;;;;;;;7.03;5.70;;;18.40;94.60;;;;;;4159757;28;20239;-74
2022/12/09 07:10:09;;;;;;;7.28;5.75;;;18.40;94.50;;;;;;4161996;28;20816;-74
2022/12/09 07:12:11;;;;;;;6.72;5.57;;;18.50;94.80;;;;;;4160677;28;20238;-74
2022/12/09 07:14:15;;;;;;;6.70;5.68;;;18.40;94.70;;;;;;4158799;28;20208;-74
2022/12/09 07:16:18;;;;;;;6.90;5.90;;;18.40;94.90;;;;;;4161574;28;20212;-74
2022/12/09 07:18:21;;;;;;;7.25;6.10;;;18.50;94.90;;;;;;4161650;28;20216;-74
2022/12/09 07:20:23;;;;;;;7.35;6.10;;;18.50;95.00;;;;;;4162061;28;20637;-74
2022/12/09 07:22:25;;;;;;;7.25;5.63;;;18.50;95.00;;;;;;4161492;28;20212;-74
2022/12/09 07:24:28;;;;;;;6.35;5.50;;;18.50;95.20;;;;;;4161543;28;20282;-74
2022/12/09 07:26:32;;;;;;;6.70;5.30;;;18.50;95.10;;;;;;4161475;28;20220;-74
2022/12/09 07:28:35;;;;;;;7.72;5.60;;;18.60;95.20;;;;;;4159284;28;20212;-74
2022/12/09 07:30:38;;;;;;;7.07;5.50;;;18.60;95.20;;;;;;4160388;28;20278;-74
2022/12/09 07:32:42;;;;;;;6.45;5.70;;;18.60;95.20;;;;;;4161805;28;20228;-74
2022/12/09 07:34:44;;;;;;;7.72;5.70;;;18.60;95.20;;;;;;4157662;28;20704;-74
2022/12/09 07:36:46;;;;;;;7.43;6.38;;;18.60;95.20;;;;;;4160035;28;20220;-74
2022/12/09 07:38:53;;;;;;;9.15;5.75;;;18.60;95.10;;;;;;4160354;28;20882;-74
2022/12/09 07:41:04;;;;;;;6.95;5.28;;;18.70;95.20;;;;;;4159730;28;20220;-75
2022/12/09 07:43:07;;;;;;;6.68;5.90;;;18.70;95.30;;;;;;4160514;28;20560;-75
2022/12/09 07:45:11;;;;;;;6.43;5.57;;;18.70;95.20;;;;;;4159505;28;20351;-74
2022/12/09 07:47:13;;;;;;;6.57;5.60;;;18.70;95.30;;;;;;4160940;28;20270;-75
2022/12/09 07:49:17;;;;;;;8.88;5.72;;;18.80;95.30;;;;;;4159858;28;20599;-75
2022/12/09 07:51:19;;;;;;;7.22;5.43;;;18.80;95.40;;;;;;4160639;28;20224;-75
2022/12/09 07:53:22;;;;;;;7.88;5.82;;;18.70;95.30;;;;;;4161214;28;20263;-75
2022/12/09 07:55:24;;;;;;;7.50;6.40;;;18.80;95.40;;;;;;4161370;28;20230;-74
2022/12/09 07:57:27;;;;;;;7.85;5.82;;;18.80;95.30;;;;;;4160682;28;20279;-75
2022/12/09 07:59:29;;;;;;;7.40;6.50;;;18.80;95.40;;;;;;4159970;28;20228;-75
2022/12/09 08:01:32;;;;;;;7.43;6.05;;;18.80;95.40;;;;;;4159871;28;20281;-75
2022/12/09 08:03:34;;;;;;;8.07;6.10;;;18.80;95.60;;;;;;4161065;28;20240;-74
2022/12/09 08:05:45;;;;;;;8.10;6.13;;;18.80;95.50;;;;;;4159701;28;20216;-74
2022/12/09 08:07:47;;;;;;;10.75;6.47;;;18.90;95.40;;;;;;4160682;28;20719;-75
2022/12/09 08:09:50;;;;;;;8.55;6.53;;;18.90;95.40;;;;;;4161041;28;20224;-74
2022/12/09 08:11:52;;;;;;;7.05;5.88;;;18.90;95.30;;;;;;4160700;28;20225;-75
2022/12/09 08:13:56;;;;;;;7.93;5.93;;;18.90;95.50;;;;;;4160567;28;21027;-75
2022/12/09 08:16:03;;;;;;;8.25;6.60;;;18.90;95.40;;;;;;4159099;28;20724;-74
2022/12/09 08:18:05;;;;;;;7.30;5.65;;;18.90;95.50;;;;;;4160866;28;20216;-75
2022/12/09 08:20:09;;;;;;;8.18;6.57;;;19.00;95.50;;;;;;4155399;28;20661;-74
2022/12/09 08:22:12;;;;;;;11.07;7.63;;;18.90;92.90;;;;;;4157889;28;20204;-74
2022/12/09 08:24:15;;;;;;;7.80;6.05;;;19.00;94.40;;;;;;4159720;28;20278;-75
2022/12/09 08:26:20;;;;;;;7.63;6.00;;;19.00;94.70;;;;;;4159885;28;20216;-74
2022/12/09 08:28:23;;;;;;;8.48;6.43;;;19.00;94.70;;;;;;4159150;28;20258;-75
2022/12/09 08:30:26;;;;;;;8.23;6.68;;;19.00;94.90;;;;;;4154228;28;20303;-74
2022/12/09 08:32:28;;;;;;;9.57;6.20;;;19.00;95.00;;;;;;4147792;28;20233;-74
2022/12/09 08:34:30;;;;;;;9.57;6.07;;;19.00;95.10;;;;;;4157456;28;20251;-74
2022/12/09 08:36:33;;;;;;;9.77;6.85;;;19.10;95.30;;;;;;4156773;28;20212;-74
2022/12/09 08:38:36;;;;;;;8.82;6.30;;;19.10;95.10;;;;;;4159128;28;20270;-75
2022/12/09 08:40:40;;;;;;;9.38;6.72;;;19.10;95.30;;;;;;4156209;28;20217;-75
2022/12/09 08:42:42;;;;;;;8.38;6.55;;;19.10;95.30;;;;;;4159236;28;20266;-75
2022/12/09 08:44:45;;;;;;;8.50;6.63;;;19.10;95.30;;;;;;4159284;28;20232;-76
2022/12/09 08:46:50;;;;;;;8.55;6.50;;;19.10;95.30;;;;;;4158261;28;20598;-75
2022/12/09 08:48:52;;;;;;;8.63;6.28;;;19.10;95.30;;;;;;4155068;28;20275;-76
2022/12/09 08:50:54;;;;;;;10.60;6.75;;;19.10;95.50;;;;;;4160553;28;20213;-76
2022/12/09 08:52:57;;;;;;;13.13;7.85;;;19.10;95.60;;;;;;4159179;28;20290;-76
2022/12/09 08:55:00;;;;;;;9.60;6.63;;;19.10;94.60;;;;;;4159707;28;20267;-76
2022/12/09 08:57:03;;;;;;;10.07;7.05;;;19.10;95.00;;;;;;4160573;28;20212;-76
2022/12/09 08:59:05;;;;;;;8.57;6.75;;;19.20;95.70;;;;;;4160477;28;20213;-76
2022/12/09 09:01:13;;;;;;;10.43;7.45;;;19.20;95.20;;;;;;4160908;28;20318;-76
2022/12/09 09:03:16;;;;;;;9.63;6.60;;;19.20;95.30;;;;;;4159014;28;20256;-76
2022/12/09 09:05:18;;;;;;;9.73;6.57;;;19.30;95.40;;;;;;4159570;28;20247;-76
2022/12/09 09:07:20;;;;;;;7.95;6.38;;;19.20;95.30;;;;;;4160860;28;20266;-76
2022/12/09 09:09:23;;;;;;;8.85;6.10;;;19.30;95.30;;;;;;4160553;28;20269;-76
2022/12/09 09:11:28;;;;;;;8.40;6.25;;;19.30;95.40;;;;;;4162692;28;20217;-76
2022/12/09 09:13:30;;;;;;;10.35;6.60;;;19.30;95.10;;;;;;4163310;28;20691;-76
2022/12/09 09:15:32;;;;;;;10.68;6.65;;;19.30;95.00;;;;;;4163356;28;20217;-76
2022/12/09 09:17:35;;;;;;;8.45;6.32;;;19.30;95.20;;;;;;4162232;28;20665;-75
2022/12/09 09:19:37;;;;;;;9.88;6.60;;;19.30;95.30;;;;;;4159103;28;20665;-76
2022/12/09 09:21:39;;;;;;;10.20;6.57;;;19.30;95.40;;;;;;4162036;28;20220;-75
2022/12/09 09:23:43;;;;;;;9.30;6.47;;;19.30;95.30;;;;;;4158012;28;20221;-76
2022/12/09 09:25:45;;;;;;;10.63;6.93;;;19.30;94.90;;;;;;4163247;28;20228;-76
2022/12/09 09:27:49;;;;;;;9.07;6.47;;;19.30;95.20;;;;;;4163212;28;20256;-75
2022/12/09 09:29:51;;;;;;;10.18;7.03;;;19.40;95.20;;;;;;4163107;28;20283;-76
2022/12/09 09:31:53;;;;;;;8.18;5.97;;;19.30;95.40;;;;;;4162788;28;20286;-76
2022/12/09 09:33:56;;;;;;;9.68;6.57;;;19.30;95.30;;;;;;4162761;28;20217;-76
2022/12/09 09:35:59;;;;;;;9.30;6.18;;;19.40;95.10;;;;;;4162671;28;20719;-76
2022/12/09 09:38:02;;;;;;;9.38;6.03;;;19.40;95.40;;;;;;4161222;28;20225;-76
2022/12/09 09:40:06;;;;;;;8.32;6.07;;;19.40;95.00;;;;;;4162995;28;20270;-76
2022/12/09 09:42:15;;;;;;;8.40;6.50;;;19.40;95.10;;;;;;4163367;28;20269;-76
2022/12/09 09:44:25;;;;;;;7.80;5.80;;;19.40;95.00;;;;;;4162693;28;20243;-76
2022/12/09 09:46:36;;;;;;;9.43;6.65;;;19.40;95.00;;;;;;4162189;28;20208;-76
2022/12/09 09:48:38;;;;;;;8.70;6.57;;;19.40;95.10;;;;;;4162352;28;20220;-76
2022/12/09 09:50:48;;;;;;;10.20;6.50;;;19.40;94.90;;;;;;4161914;28;20220;-76
2022/12/09 09:52:53;;;;;;;9.05;6.30;;;19.50;95.10;;;;;;4162419;28;20228;-76
2022/12/09 09:54:56;;;;;;;10.90;6.97;;;19.40;95.00;;;;;;4160656;28;20235;-76
2022/12/09 09:57:03;;;;;;;8.65;6.45;;;19.50;95.00;;;;;;4160630;28;20216;-76
2022/12/09 09:59:17;;;;;;;8.13;6.40;;;19.40;95.00;;;;;;4162555;28;20623;-76
2022/12/09 10:01:25;;;;;;;10.10;6.65;;;19.50;95.10;;;;;;4162607;28;20228;-76
2022/12/09 10:03:36;;;;;;;8.32;6.35;;;19.50;95.10;;;;;;4162470;28;20212;-76
2022/12/09 10:05:49;;;;;;;9.68;6.88;;;19.40;95.00;;;;;;4162739;28;20236;-76
2022/12/09 10:07:55;;;;;;;9.75;6.78;;;19.50;94.60;;;;;;4162090;28;22013;-76
2022/12/09 10:10:12;;;;;;;9.05;6.53;;;19.50;94.70;;;;;;4160625;28;20224;-76
2022/12/09 10:12:21;;;;;;;9.32;6.72;;;19.50;95.00;;;;;;4159703;28;20271;-76
2022/12/09 10:14:35;;;;;;;9.57;6.68;;;19.50;94.60;;;;;;4161184;28;20235;-76
2022/12/09 10:16:43;;;;;;;8.65;6.38;;;19.50;94.70;;;;;;4161430;28;20224;-76
2022/12/09 10:19:02;;;;;;;10.45;6.82;;;19.50;94.60;;;;;;4162656;28;20220;-76
2022/12/09 10:21:16;;;;;;;8.57;6.57;;;19.60;94.70;;;;;;4159653;28;20217;-76
2022/12/09 10:23:19;;;;;;;9.48;6.93;;;19.60;94.60;;;;;;4162200;28;20220;-76
2022/12/09 10:25:24;;;;;;;9.40;6.18;;;19.60;94.40;;;;;;4161354;28;20278;-76
2022/12/09 10:27:31;;;;;;;8.23;6.30;;;19.60;94.60;;;;;;4160494;28;20259;-76
2022/12/09 10:29:48;;;;;;;8.05;6.55;;;19.60;94.70;;;;;;4162344;28;20212;-76
2022/12/09 10:31:51;;;;;;;8.38;6.53;;;19.60;94.90;;;;;;4161407;28;20244;-75
2022/12/09 10:33:54;;;;;;;8.15;6.30;;;19.60;94.50;;;;;;4160852;28;20318;-76
2022/12/09 10:35:57;;;;;;;8.45;6.38;;;19.60;94.60;;;;;;4161852;28;20216;-76
2022/12/09 10:38:08;;;;;;;9.27;6.63;;;19.60;94.50;;;;;;4160690;28;20216;-76
2022/12/09 10:40:21;;;;;;;8.77;6.60;;;19.60;94.70;;;;;;4162197;28;20236;-76
2022/12/09 10:44:47;;;;;;;8.10;6.43;;;19.60;94.40;;;;;;4163963;28;20673;-76
2022/12/09 10:46:57;;;;;;;9.52;6.50;;;19.60;94.50;;;;;;4160107;28;20225;-76
2022/12/09 10:49:02;;;;;;;8.80;6.28;;;19.60;94.60;;;;;;4161896;28;20211;-76